createdAt,value
2018-06-27T00:01:27.421Z,4.80
2018-06-27T00:03:56.180Z,4.33
2018-06-27T00:06:25.013Z,5.70
2018-06-27T00:08:53.877Z,4.90
2018-06-27T00:11:22.526Z,4.70
2018-06-27T00:13:51.237Z,4.37
2018-06-27T00:16:20.025Z,4.90
2018-06-27T00:18:48.825Z,4.80
2018-06-27T00:21:17.601Z,4.83
2018-06-27T00:23:46.497Z,4.73
2018-06-27T00:26:15.316Z,4.33
2018-06-27T00:28:44.053Z,4.33
2018-06-27T00:31:12.833Z,4.77
2018-06-27T00:33:41.626Z,5.10
2018-06-27T00:36:10.409Z,4.90
2018-06-27T00:38:39.233Z,4.97
2018-06-27T00:41:07.993Z,4.60
2018-06-27T00:43:36.797Z,4.90
2018-06-27T00:46:05.637Z,4.77
2018-06-27T00:48:34.453Z,5.40
2018-06-27T00:51:03.261Z,4.97
2018-06-27T00:53:37.467Z,5.10
2018-06-27T00:56:06.268Z,4.93
2018-06-27T00:58:35.021Z,5.23
2018-06-27T01:01:03.844Z,6.40
2018-06-27T01:03:32.614Z,5.60
2018-06-27T01:06:01.432Z,5.83
2018-06-27T01:08:32.224Z,5.00
2018-06-27T01:11:01.936Z,4.73
2018-06-27T01:13:31.768Z,5.23
2018-06-27T01:16:01.552Z,4.93
2018-06-27T01:18:30.352Z,5.93
2018-06-27T01:20:59.136Z,5.27
2018-06-27T01:23:27.924Z,5.10
2018-06-27T01:25:57.748Z,5.73
2018-06-27T01:28:26.552Z,5.47
2018-06-27T01:30:55.308Z,5.57
2018-06-27T01:33:24.108Z,4.70
2018-06-27T01:35:53.296Z,5.57
2018-06-27T01:38:23.120Z,5.03
2018-06-27T01:40:52.921Z,5.23
2018-06-27T01:43:21.732Z,4.93
2018-06-27T01:45:51.548Z,5.30
2018-06-27T01:48:20.328Z,5.10
2018-06-27T01:50:51.071Z,4.97
2018-06-27T01:53:23.131Z,5.67
2018-06-27T01:55:51.920Z,5.00
2018-06-27T01:58:20.684Z,5.87
2018-06-27T02:00:49.495Z,5.97
2018-06-27T02:03:18.272Z,5.10
2018-06-27T02:05:47.658Z,5.40
2018-06-27T02:08:16.466Z,5.37
2018-06-27T02:10:45.371Z,6.13
2018-06-27T02:13:14.155Z,5.43
2018-06-27T02:15:42.935Z,5.30
2018-06-27T02:18:13.739Z,5.17
2018-06-27T02:20:45.704Z,5.23
2018-06-27T02:23:14.499Z,5.10
2018-06-27T02:25:43.292Z,5.10
2018-06-27T02:28:12.088Z,5.30
2018-06-27T02:30:40.884Z,5.27
2018-06-27T02:33:09.659Z,5.23
2018-06-27T02:35:38.451Z,5.60
2018-06-27T02:38:08.288Z,5.80
2018-06-27T02:40:37.760Z,5.70
2018-06-27T02:43:06.588Z,5.87
2018-06-27T02:45:36.356Z,5.30
2018-06-27T02:48:05.131Z,5.33
2018-06-27T02:50:35.980Z,5.13
2018-06-27T02:53:05.827Z,5.53
2018-06-27T02:55:34.672Z,5.17
2018-06-27T02:58:05.892Z,5.40
2018-06-27T03:00:34.716Z,6.07
2018-06-27T03:03:04.579Z,5.50
2018-06-27T03:05:33.428Z,5.73
2018-06-27T03:08:02.196Z,5.33
2018-06-27T03:10:30.990Z,5.50
2018-06-27T03:12:59.790Z,5.20
2018-06-27T03:15:28.565Z,4.77
2018-06-27T03:17:57.348Z,4.50
2018-06-27T03:20:26.182Z,5.50
2018-06-27T03:22:55.908Z,4.93
2018-06-27T03:25:24.832Z,5.50
2018-06-27T03:27:53.612Z,5.20
2018-06-27T03:30:25.948Z,5.40
2018-06-27T03:32:55.710Z,5.50
2018-06-27T03:35:24.495Z,5.53
2018-06-27T03:37:53.295Z,5.63
2018-06-27T03:40:22.076Z,5.40
2018-06-27T03:42:51.875Z,5.27
2018-06-27T03:45:20.688Z,4.97
2018-06-27T03:47:49.452Z,4.90
2018-06-27T03:50:20.312Z,4.97
2018-06-27T03:52:49.047Z,4.80
2018-06-27T03:55:17.780Z,5.30
2018-06-27T03:57:46.596Z,5.07
2018-06-27T04:00:18.316Z,5.70
2018-06-27T04:02:47.120Z,5.10
2018-06-27T04:05:16.900Z,4.80
2018-06-27T04:07:47.099Z,5.23
2018-06-27T04:10:16.924Z,4.87
2018-06-27T04:12:46.828Z,4.70
2018-06-27T04:15:17.572Z,4.47
2018-06-27T04:17:46.170Z,4.63
2018-06-27T04:20:17.915Z,5.27
2018-06-27T04:22:46.611Z,5.00
2018-06-27T04:25:15.411Z,5.20
2018-06-27T04:27:48.995Z,4.70
2018-06-27T04:30:17.784Z,4.67
2018-06-27T04:32:46.597Z,4.60
2018-06-27T04:35:16.372Z,4.80
2018-06-27T04:37:44.952Z,4.70
2018-06-27T04:40:14.680Z,4.90
2018-06-27T04:42:44.496Z,4.90
2018-06-27T04:45:13.292Z,4.70
2018-06-27T04:47:42.071Z,4.63
2018-06-27T04:50:10.876Z,4.13
2018-06-27T04:52:40.684Z,4.70
2018-06-27T04:55:09.468Z,4.30
2018-06-27T04:57:38.231Z,4.20
2018-06-27T05:00:06.997Z,5.43
2018-06-27T05:02:35.815Z,4.83
2018-06-27T05:05:04.783Z,5.10
2018-06-27T05:07:34.672Z,3.90
2018-06-27T05:10:03.424Z,4.67
2018-06-27T05:12:32.220Z,4.40
2018-06-27T05:15:02.000Z,3.90
2018-06-27T05:17:34.416Z,4.13
2018-06-27T05:20:04.207Z,4.50
2018-06-27T05:22:35.016Z,4.47
2018-06-27T05:25:03.827Z,4.20
2018-06-27T05:27:33.720Z,4.40
2018-06-27T05:30:03.695Z,4.90
2018-06-27T05:32:32.796Z,4.70
2018-06-27T05:35:01.636Z,4.50
2018-06-27T05:37:30.424Z,4.37
2018-06-27T05:39:59.195Z,4.50
2018-06-27T05:42:28.028Z,3.50
2018-06-27T05:44:57.820Z,4.27
2018-06-27T05:47:26.607Z,4.40
2018-06-27T05:49:55.379Z,4.70
2018-06-27T05:52:24.167Z,4.40
2018-06-27T05:54:58.391Z,4.20
2018-06-27T05:57:28.187Z,4.13
2018-06-27T05:59:58.016Z,3.77
2018-06-27T06:02:26.791Z,5.03
2018-06-27T06:04:58.746Z,4.30
2018-06-27T06:07:27.617Z,4.10
2018-06-27T06:09:56.502Z,4.20
2018-06-27T06:12:25.215Z,4.30
2018-06-27T06:14:54.379Z,4.10
2018-06-27T06:17:23.196Z,4.40
2018-06-27T06:19:52.062Z,4.97
2018-06-27T06:22:20.888Z,3.80
2018-06-27T06:24:50.716Z,4.10
2018-06-27T06:27:19.479Z,3.67
2018-06-27T06:29:48.264Z,4.17
2018-06-27T06:32:17.172Z,4.10
2018-06-27T06:34:45.843Z,4.03
2018-06-27T06:37:14.632Z,3.20
2018-06-27T06:39:43.407Z,4.40
2018-06-27T06:42:12.200Z,4.20
2018-06-27T06:44:40.987Z,3.83
2018-06-27T06:47:09.776Z,4.43
2018-06-27T06:49:38.520Z,3.57
2018-06-27T06:52:07.275Z,3.40
2018-06-27T06:54:38.079Z,3.80
2018-06-27T06:57:06.800Z,3.43
2018-06-27T06:59:35.551Z,3.17
2018-06-27T07:02:05.367Z,2.67
2018-06-27T07:04:36.234Z,2.83
2018-06-27T07:07:04.991Z,3.07
2018-06-27T07:09:34.771Z,2.90
2018-06-27T07:12:03.575Z,2.60
2018-06-27T07:14:32.371Z,2.20
2018-06-27T07:17:01.607Z,2.00
2018-06-27T07:19:30.367Z,2.23
2018-06-27T07:21:59.163Z,2.00
2018-06-27T07:24:27.931Z,2.27
2018-06-27T07:26:56.719Z,2.30
2018-06-27T07:29:26.531Z,1.70
2018-06-27T07:31:55.335Z,1.70
2018-06-27T07:34:24.153Z,1.77
2018-06-27T07:36:52.923Z,1.90
2018-06-27T07:39:21.687Z,1.83
2018-06-27T07:41:50.463Z,1.87
2018-06-27T07:44:19.294Z,2.00
2018-06-27T07:46:49.068Z,1.70
2018-06-27T07:49:17.803Z,1.90
2018-06-27T07:51:47.568Z,1.43
2018-06-27T07:54:16.375Z,1.40
2018-06-27T07:56:45.148Z,1.87
2018-06-27T07:59:14.941Z,1.30
2018-06-27T08:01:43.708Z,1.60
2018-06-27T08:04:12.511Z,1.40
2018-06-27T08:06:48.752Z,1.30
2018-06-27T08:09:17.563Z,1.33
2018-06-27T08:11:47.392Z,1.47
2018-06-27T08:14:16.127Z,1.30
2018-06-27T08:16:44.963Z,1.47
2018-06-27T08:19:13.695Z,1.20
2018-06-27T08:21:43.475Z,1.30
2018-06-27T08:24:12.262Z,1.40
2018-06-27T08:26:41.051Z,1.20
2018-06-27T08:29:10.852Z,1.20
2018-06-27T08:31:39.667Z,1.20
2018-06-27T08:34:09.463Z,1.30
2018-06-27T08:36:38.231Z,1.37
2018-06-27T08:39:08.493Z,1.47
2018-06-27T08:45:10.647Z,1.10
2018-06-27T08:47:39.143Z,1.20
2018-06-27T08:50:08.771Z,1.10
2018-06-27T08:52:38.575Z,1.10
2018-06-27T08:55:07.344Z,1.20
2018-06-27T08:57:36.137Z,1.33
2018-06-27T09:00:04.943Z,1.10
2018-06-27T09:02:33.743Z,1.10
2018-06-27T09:05:02.503Z,1.10
2018-06-27T09:07:31.267Z,0.90
2018-06-27T09:10:00.044Z,1.00
2018-06-27T09:12:28.871Z,1.17
2018-06-27T09:14:57.599Z,1.30
2018-06-27T09:17:27.343Z,1.30
2018-06-27T09:19:56.143Z,1.07
2018-06-27T09:22:24.915Z,1.10
2018-06-27T09:24:54.755Z,1.20
2018-06-27T09:27:26.599Z,1.10
2018-06-27T09:29:56.413Z,1.33
2018-06-27T09:32:26.227Z,1.27
2018-06-27T09:34:55.003Z,1.00
2018-06-27T09:37:25.867Z,1.37
2018-06-27T09:39:55.639Z,1.20
2018-06-27T09:42:24.455Z,1.20
2018-06-27T09:44:54.319Z,1.10
2018-06-27T09:47:23.202Z,1.17
2018-06-27T09:49:51.879Z,0.80
2018-06-27T09:52:20.719Z,1.00
2018-06-27T09:54:49.503Z,1.00
2018-06-27T09:57:18.307Z,1.03
2018-06-27T09:59:47.083Z,1.70
2018-06-27T10:02:15.871Z,1.00
2018-06-27T10:04:44.647Z,1.07
2018-06-27T10:07:13.387Z,1.07
2018-06-27T10:09:42.239Z,1.10
2018-06-27T10:12:11.014Z,0.87
2018-06-27T10:14:43.623Z,1.00
2018-06-27T10:17:13.320Z,1.13
2018-06-27T10:19:41.874Z,1.17
2018-06-27T10:22:10.612Z,1.00
2018-06-27T10:24:41.414Z,1.10
2018-06-27T10:27:10.191Z,1.10
2018-06-27T10:29:39.995Z,1.10
2018-06-27T10:32:08.795Z,1.10
2018-06-27T10:34:37.582Z,0.93
2018-06-27T10:37:06.394Z,1.13
2018-06-27T10:39:35.202Z,1.10
2018-06-27T10:42:04.035Z,1.13
2018-06-27T10:44:32.881Z,1.30
2018-06-27T10:47:02.654Z,1.27
2018-06-27T10:49:32.467Z,1.27
2018-06-27T10:52:01.247Z,1.10
2018-06-27T10:54:31.055Z,1.20
2018-06-27T10:56:59.850Z,0.80
2018-06-27T10:59:28.642Z,1.07
2018-06-27T11:01:57.423Z,1.10
2018-06-27T11:04:26.206Z,1.27
2018-06-27T11:06:55.015Z,1.10
2018-06-27T11:09:23.799Z,1.20
2018-06-27T11:11:52.555Z,1.00
2018-06-27T11:14:21.371Z,1.20
2018-06-27T11:16:50.173Z,1.17
2018-06-27T11:19:18.959Z,1.00
2018-06-27T11:21:47.719Z,1.40
2018-06-27T11:24:16.527Z,1.20
2018-06-27T11:26:45.307Z,1.10
2018-06-27T11:29:14.111Z,1.30
2018-06-27T11:31:42.875Z,1.10
2018-06-27T11:34:12.683Z,1.30
2018-06-27T11:36:41.507Z,1.43
2018-06-27T11:39:11.976Z,1.63
2018-06-27T11:41:41.075Z,1.27
2018-06-27T11:44:10.971Z,1.03
2018-06-27T11:46:40.723Z,1.30
2018-06-27T11:49:09.535Z,1.40
2018-06-27T11:51:38.058Z,1.60
2018-06-27T11:54:06.699Z,1.30
2018-06-27T11:56:35.499Z,1.37
2018-06-27T11:59:04.291Z,1.50
2018-06-27T12:01:33.179Z,1.10
2018-06-27T12:04:02.939Z,1.50
2018-06-27T12:06:31.763Z,1.20
2018-06-27T12:09:00.555Z,1.43
2018-06-27T12:11:29.379Z,1.70
2018-06-27T12:13:59.155Z,1.40
2018-06-27T12:16:28.950Z,1.40
2018-06-27T12:18:57.735Z,1.10
2018-06-27T12:21:26.614Z,1.50
2018-06-27T12:23:55.562Z,1.60
2018-06-27T12:26:24.380Z,1.43
2018-06-27T12:28:54.285Z,1.30
2018-06-27T12:31:24.442Z,1.10
2018-06-27T12:33:56.778Z,1.43
2018-06-27T12:36:25.718Z,1.10
2018-06-27T12:38:57.282Z,1.00
2018-06-27T12:41:26.150Z,1.20
2018-06-27T12:44:00.158Z,1.30
2018-06-27T12:46:31.046Z,1.03
2018-06-27T12:48:59.886Z,1.20
2018-06-27T12:51:29.607Z,1.10
2018-06-27T12:53:58.384Z,1.30
2018-06-27T12:56:31.202Z,1.20
2018-06-27T12:59:00.082Z,1.00
2018-06-27T13:01:29.578Z,1.10
2018-06-27T13:03:58.329Z,1.17
2018-06-27T13:06:30.598Z,1.10
2018-06-27T13:09:01.494Z,1.10
2018-06-27T13:11:30.298Z,1.00
2018-06-27T13:13:59.034Z,1.53
2018-06-27T13:16:27.526Z,1.10
2018-06-27T13:18:56.286Z,1.13
2018-06-27T13:21:25.022Z,1.13
2018-06-27T13:23:53.886Z,1.00
2018-06-27T13:26:22.606Z,0.90
2018-06-27T13:28:51.444Z,0.90
2018-06-27T13:31:21.242Z,1.13
2018-06-27T13:33:51.046Z,1.10
2018-06-27T13:36:19.831Z,1.40
2018-06-27T13:38:48.658Z,1.10
2018-06-27T13:41:18.394Z,1.00
2018-06-27T13:43:47.146Z,0.90
2018-06-27T13:46:15.902Z,1.20
2018-06-27T13:48:44.715Z,1.07
2018-06-27T13:51:14.394Z,1.07
2018-06-27T13:53:45.119Z,1.03
2018-06-27T13:56:13.938Z,1.33
2018-06-27T13:58:42.731Z,1.30
2018-06-27T14:01:12.330Z,1.30
2018-06-27T14:03:43.044Z,1.47
2018-06-27T14:06:11.846Z,1.07
2018-06-27T14:08:40.658Z,1.30
2018-06-27T14:11:10.238Z,1.13
2018-06-27T14:13:39.950Z,1.10
2018-06-27T14:16:10.780Z,1.30
2018-06-27T14:18:41.666Z,1.40
2018-06-27T14:21:11.426Z,1.10
2018-06-27T14:23:40.209Z,1.40
2018-06-27T14:26:08.957Z,1.10
2018-06-27T14:28:38.710Z,1.10
2018-06-27T14:31:08.338Z,1.10
2018-06-27T14:33:37.162Z,1.00
2018-06-27T14:36:05.982Z,1.40
2018-06-27T14:38:35.806Z,1.40
2018-06-27T14:41:07.558Z,1.30
2018-06-27T14:43:36.350Z,1.40
2018-06-27T14:46:05.172Z,1.40
2018-06-27T14:48:33.895Z,1.13
2018-06-27T14:51:03.070Z,1.10
2018-06-27T14:53:31.964Z,1.37
2018-06-27T14:56:00.765Z,1.23
2018-06-27T14:58:29.577Z,1.50
2018-06-27T15:00:58.161Z,1.33
2018-06-27T15:03:26.855Z,1.57
2018-06-27T15:05:55.651Z,1.60
2018-06-27T15:08:24.429Z,1.30
2018-06-27T15:10:54.191Z,1.93
2018-06-27T15:13:22.938Z,1.20
2018-06-27T15:15:51.673Z,1.23
2018-06-27T15:18:21.422Z,1.23
2018-06-27T15:20:51.159Z,1.43
2018-06-27T15:23:19.974Z,1.43
2018-06-27T15:25:48.882Z,1.47
2018-06-27T15:28:26.654Z,1.00
2018-06-27T15:30:56.384Z,1.13
2018-06-27T15:33:26.126Z,1.27
2018-06-27T15:35:58.906Z,1.33
2018-06-27T15:38:27.686Z,1.60
2018-06-27T15:40:56.498Z,1.20
2018-06-27T15:43:28.678Z,1.10
2018-06-27T15:45:58.455Z,1.10
2018-06-27T15:48:27.259Z,1.23
2018-06-27T15:50:56.042Z,1.10
2018-06-27T15:53:24.826Z,0.97
2018-06-27T15:55:57.262Z,1.30
2018-06-27T15:58:26.333Z,1.40
2018-06-27T16:00:55.910Z,1.23
2018-06-27T16:03:34.254Z,1.60
2018-06-27T16:08:53.678Z,1.20
2018-06-27T16:11:30.227Z,1.00
2018-06-27T16:14:04.682Z,1.00
2018-06-27T16:16:39.065Z,1.30
2018-06-27T16:19:07.902Z,0.97
2018-06-27T16:21:37.006Z,1.67
2018-06-27T16:24:06.009Z,1.30
2018-06-27T16:26:34.793Z,1.40
2018-06-27T16:29:03.537Z,1.50
2018-06-27T16:31:33.378Z,1.40
2018-06-27T16:34:06.033Z,1.60
2018-06-27T16:36:34.864Z,1.13
2018-06-27T16:39:05.588Z,2.43
2018-06-27T16:41:34.389Z,1.30
2018-06-27T16:44:04.090Z,1.70
2018-06-27T16:46:34.347Z,1.57
2018-06-27T16:49:03.641Z,1.27
2018-06-27T16:51:32.598Z,1.40
2018-06-27T16:54:04.614Z,1.70
2018-06-27T16:56:34.403Z,1.30
2018-06-27T16:59:03.429Z,1.40
2018-06-27T17:01:32.340Z,1.23
2018-06-27T17:04:01.498Z,1.20
2018-06-27T17:06:31.225Z,1.10
2018-06-27T17:09:00.039Z,1.03
2018-06-27T17:11:28.825Z,1.60
2018-06-27T17:13:57.637Z,1.60
2018-06-27T17:16:26.301Z,1.03
2018-06-27T17:18:55.065Z,1.20
2018-06-27T17:21:23.717Z,1.27
2018-06-27T17:23:52.553Z,1.33
2018-06-27T17:26:21.337Z,1.27
2018-06-27T17:28:52.073Z,1.00
2018-06-27T17:31:20.873Z,1.53
2018-06-27T17:33:49.707Z,1.00
2018-06-27T17:36:18.541Z,1.40
2018-06-27T17:38:48.229Z,1.40
2018-06-27T17:41:18.085Z,1.47
2018-06-27T17:43:48.893Z,1.13
2018-06-27T17:46:18.740Z,1.40
2018-06-27T17:48:50.569Z,1.40
2018-06-27T17:51:21.309Z,1.20
2018-06-27T17:53:50.104Z,1.53
2018-06-27T17:56:18.877Z,1.30
2018-06-27T17:58:47.661Z,1.53
2018-06-27T18:01:17.482Z,1.40
2018-06-27T18:03:50.061Z,1.40
2018-06-27T18:06:32.222Z,1.40
2018-06-27T18:09:01.965Z,1.70
2018-06-27T18:11:37.400Z,1.77
2018-06-27T18:14:10.414Z,1.50
2018-06-27T18:16:44.495Z,1.30
2018-06-27T18:19:14.234Z,1.30
2018-06-27T18:21:44.050Z,1.40
2018-06-27T18:24:12.862Z,1.73
2018-06-27T18:26:41.562Z,1.40
2018-06-27T18:29:10.361Z,1.30
2018-06-27T18:31:41.066Z,1.30
2018-06-27T18:34:10.853Z,1.60
2018-06-27T18:36:39.809Z,1.50
2018-06-27T18:39:09.829Z,1.47
2018-06-27T18:41:39.943Z,1.30
2018-06-27T18:44:08.754Z,1.70
2018-06-27T18:46:37.826Z,1.80
2018-06-27T18:49:07.689Z,1.67
2018-06-27T18:51:43.557Z,1.93
2018-06-27T18:54:12.433Z,1.73
2018-06-27T18:56:46.657Z,1.47
2018-06-27T18:59:18.890Z,1.70
2018-06-27T19:01:47.761Z,1.50
2018-06-27T19:04:16.605Z,1.60
2018-06-27T19:06:45.381Z,1.67
2018-06-27T19:09:14.165Z,1.63
2018-06-27T19:11:45.006Z,1.60
2018-06-27T19:14:19.261Z,1.93
2018-06-27T19:16:50.069Z,1.90
2018-06-27T19:19:19.001Z,1.63
2018-06-27T19:21:47.775Z,1.87
2018-06-27T19:24:16.785Z,1.90
2018-06-27T19:26:45.621Z,2.03
2018-06-27T19:29:14.401Z,1.80
2018-06-27T19:31:44.173Z,1.80
2018-06-27T19:34:14.017Z,1.80
2018-06-27T19:36:47.043Z,1.50
2018-06-27T19:39:17.845Z,2.17
2018-06-27T19:41:50.433Z,1.83
2018-06-27T19:44:23.249Z,1.97
2018-06-27T19:46:56.199Z,2.20
2018-06-27T19:49:30.033Z,2.10
2018-06-27T19:52:02.877Z,2.23
2018-06-27T19:54:36.752Z,1.83
2018-06-27T19:57:05.589Z,2.30
2018-06-27T19:59:36.420Z,2.40
2018-06-27T20:02:04.784Z,2.27
2018-06-27T20:04:34.076Z,1.93
2018-06-27T20:07:03.393Z,2.10
2018-06-27T20:09:37.883Z,2.43
2018-06-27T20:12:07.704Z,2.50
2018-06-27T20:14:36.559Z,2.00
2018-06-27T20:17:06.340Z,2.00
2018-06-27T20:19:35.220Z,2.13
2018-06-27T20:22:04.193Z,2.10
2018-06-27T20:24:32.876Z,1.97
2018-06-27T20:27:08.398Z,1.90
2018-06-27T20:29:38.260Z,2.33
2018-06-27T20:32:07.248Z,2.13
2018-06-27T20:34:38.064Z,2.20
2018-06-27T20:37:08.938Z,2.60
2018-06-27T20:39:39.716Z,2.33
2018-06-27T20:42:08.513Z,2.53
2018-06-27T20:44:38.328Z,2.50
2018-06-27T20:47:09.162Z,2.10
2018-06-27T20:49:37.976Z,2.00
2018-06-27T20:52:06.729Z,2.20
2018-06-27T20:54:35.525Z,2.23
2018-06-27T20:57:06.373Z,2.30
2018-06-27T20:59:34.956Z,2.30
2018-06-27T21:02:09.269Z,2.20
2018-06-27T21:04:39.000Z,2.30
2018-06-27T21:07:07.360Z,2.50
2018-06-27T21:09:36.152Z,2.33
2018-06-27T21:12:05.168Z,2.50
2018-06-27T21:14:34.051Z,2.47
2018-06-27T21:17:03.860Z,2.30
2018-06-27T21:19:32.725Z,2.23
2018-06-27T21:22:19.392Z,2.33
2018-06-27T21:24:48.349Z,2.97
2018-06-27T21:27:17.300Z,2.43
2018-06-27T21:29:46.092Z,2.40
2018-06-27T21:32:14.892Z,2.40
2018-06-27T21:34:43.919Z,2.60
2018-06-27T21:37:14.688Z,2.47
2018-06-27T21:39:43.516Z,2.50
2018-06-27T21:42:12.020Z,2.93
2018-06-27T21:44:40.760Z,3.07
2018-06-27T21:47:10.716Z,2.77
2018-06-27T21:49:48.884Z,2.90
2018-06-27T21:52:17.128Z,2.47
2018-06-27T21:54:45.440Z,2.50
2018-06-27T21:57:14.216Z,2.83
2018-06-27T21:59:43.020Z,3.17
2018-06-27T22:02:11.816Z,2.57
2018-06-27T22:04:44.249Z,2.77
2018-06-27T22:07:15.044Z,3.40
2018-06-27T22:09:49.316Z,2.60
2018-06-27T22:12:17.628Z,2.90
2018-06-27T22:14:46.032Z,3.20
2018-06-27T22:17:14.909Z,3.20
2018-06-27T22:19:44.681Z,3.10
2018-06-27T22:22:13.480Z,3.13
2018-06-27T22:24:44.376Z,3.50
2018-06-27T22:27:13.220Z,2.73
2018-06-27T22:29:47.604Z,3.17
2018-06-27T22:32:16.416Z,3.37
2018-06-27T22:34:49.832Z,3.17
2018-06-27T22:37:29.100Z,3.43
2018-06-27T22:39:57.872Z,3.43
2018-06-27T22:42:26.708Z,3.43
2018-06-27T22:44:56.456Z,3.20
2018-06-27T22:47:25.321Z,3.20
2018-06-27T22:49:54.063Z,3.30
2018-06-27T22:52:26.076Z,3.23
2018-06-27T22:55:00.404Z,3.20
2018-06-27T22:57:29.680Z,3.00
2018-06-27T22:59:57.916Z,3.33
2018-06-27T23:02:30.424Z,3.43
2018-06-27T23:04:59.246Z,3.50
2018-06-27T23:07:28.204Z,3.70
2018-06-27T23:09:57.020Z,3.23
2018-06-27T23:12:25.873Z,3.60
2018-06-27T23:14:54.728Z,3.60
2018-06-27T23:17:23.608Z,3.37
2018-06-27T23:19:52.460Z,3.47
2018-06-27T23:22:33.480Z,3.40
2018-06-27T23:25:03.256Z,3.70
2018-06-27T23:27:35.620Z,3.90
2018-06-27T23:30:08.222Z,3.87
2018-06-27T23:32:37.051Z,3.73
2018-06-27T23:35:05.924Z,3.60
2018-06-27T23:37:42.804Z,3.30
2018-06-27T23:40:13.604Z,3.20
2018-06-27T23:42:42.147Z,3.37
2018-06-27T23:45:11.804Z,3.80
2018-06-27T23:47:41.599Z,3.70
2018-06-27T23:50:10.360Z,4.00
2018-06-27T23:52:39.160Z,3.20
2018-06-27T23:55:07.924Z,3.70
2018-06-27T23:57:37.737Z,3.53
